Fleetville, Pennsylvania
Current Conditions -  °F | °C
As of 5:54 PM on Wednesday 22 Oct 2014 (Local Time) from KAVP Reporting Station
Light Rain Light Rain  
Wind Chill: 52°   Ceiling: 1800
Heat Index: 52°   Visibility: 10mi
Dew Point: 46°   Wind: 16mph
Humidity: 80%   Direction: 360°N
Pressure: 29.96"   Gusts: 24mph
Location:  41.6°N, 75.71°W
Report Text: KAVP 222154Z 36014G21KT 10SM -RA OVC018 11/08 A2996 RMK AO2 RAB27 SLP146 P0000 T01110078
Loading
Personal Weather Stations






























Interactive Weather Map
Tropical Storm Tracking
New forecast layout! Learn more

10-Day Weather Forecast

Advertisements
Track Severe Weather on mobile